createdAt,value
2018-08-11T00:01:07.765Z,1.20
2018-08-11T00:03:36.032Z,1.20
2018-08-11T00:08:55.073Z,1.00
2018-08-11T00:11:23.347Z,0.93
2018-08-11T00:13:52.523Z,0.80
2018-08-11T00:16:20.817Z,1.00
2018-08-11T00:18:49.107Z,0.93
2018-08-11T00:21:17.374Z,1.00
2018-08-11T00:23:45.679Z,0.80
2018-08-11T00:26:13.973Z,1.13
2018-08-11T00:28:42.296Z,1.03
2018-08-11T00:31:10.574Z,1.00
2018-08-11T00:33:38.843Z,1.00
2018-08-11T00:36:07.149Z,0.90
2018-08-11T00:38:35.493Z,1.00
2018-08-11T00:41:03.761Z,1.00
2018-08-11T00:43:32.079Z,1.07
2018-08-11T00:46:00.340Z,0.90
2018-08-11T00:48:28.624Z,1.20
2018-08-11T00:50:56.903Z,1.10
2018-08-11T00:53:25.178Z,1.20
2018-08-11T00:55:53.474Z,1.13
2018-08-11T00:58:21.758Z,1.20
2018-08-11T01:00:50.041Z,1.30
2018-08-11T01:03:18.344Z,1.07
2018-08-11T01:05:46.623Z,1.50
2018-08-11T01:08:14.891Z,1.20
2018-08-11T01:10:43.264Z,1.30
2018-08-11T01:13:11.500Z,1.13
2018-08-11T01:15:39.786Z,1.37
2018-08-11T01:18:08.066Z,1.33
2018-08-11T01:20:36.352Z,1.27
2018-08-11T01:23:04.647Z,1.50
2018-08-11T01:25:32.923Z,1.40
2018-08-11T01:28:01.195Z,1.20
2018-08-11T01:30:29.502Z,1.23
2018-08-11T01:35:48.435Z,1.27
2018-08-11T01:38:16.703Z,1.30
2018-08-11T01:40:44.947Z,1.27
2018-08-11T01:43:13.204Z,1.10
2018-08-11T01:45:41.482Z,1.20
2018-08-11T01:48:09.743Z,1.30
2018-08-11T01:50:38.015Z,1.27
2018-08-11T01:53:06.268Z,1.20
2018-08-11T01:55:34.531Z,1.33
2018-08-11T01:58:02.828Z,1.30
2018-08-11T02:00:31.096Z,1.30
2018-08-11T02:02:59.352Z,1.33
2018-08-11T02:05:27.659Z,1.00
2018-08-11T02:07:55.919Z,1.30
2018-08-11T02:10:24.170Z,1.27
2018-08-11T02:12:52.423Z,1.50
2018-08-11T02:15:20.695Z,1.33
2018-08-11T02:17:48.958Z,1.43
2018-08-11T02:20:18.484Z,1.20
2018-08-11T02:22:47.780Z,1.50
2018-08-11T02:25:16.297Z,1.30
2018-08-11T02:27:44.579Z,1.30
2018-08-11T02:30:16.750Z,1.17
2018-08-11T02:32:45.027Z,1.10
2018-08-11T02:35:13.839Z,1.50
2018-08-11T02:37:42.528Z,1.20
2018-08-11T02:40:12.276Z,1.37
2018-08-11T02:42:47.359Z,1.30
2018-08-11T02:45:16.825Z,1.20
2018-08-11T02:47:45.627Z,1.40
2018-08-11T02:50:19.059Z,1.60
2018-08-11T02:52:47.319Z,1.30
2018-08-11T02:55:15.580Z,1.40
2018-08-11T02:57:43.822Z,1.50
2018-08-11T03:00:12.658Z,1.50
2018-08-11T03:02:40.934Z,1.40
2018-08-11T03:05:09.336Z,1.37
2018-08-11T03:07:38.088Z,1.50
2018-08-11T03:10:08.212Z,1.60
2018-08-11T03:12:36.476Z,1.53
2018-08-11T03:15:05.718Z,1.37
2018-08-11T03:17:34.009Z,1.50
2018-08-11T03:20:02.267Z,1.47
2018-08-11T03:22:30.574Z,1.57
2018-08-11T03:24:58.822Z,1.90
2018-08-11T03:27:27.074Z,1.60
2018-08-11T03:29:55.331Z,1.60
2018-08-11T03:32:23.591Z,1.60
2018-08-11T03:34:51.831Z,1.83
2018-08-11T03:37:20.074Z,2.00
2018-08-11T03:39:48.309Z,1.70
2018-08-11T03:42:16.549Z,1.77
2018-08-11T03:44:44.786Z,1.80
2018-08-11T03:47:13.027Z,1.80
2018-08-11T03:49:41.267Z,1.63
2018-08-11T03:52:09.517Z,1.93
2018-08-11T03:54:37.763Z,1.60
2018-08-11T03:57:06.042Z,2.20
2018-08-11T03:59:34.291Z,1.90
2018-08-11T04:02:02.626Z,1.63
2018-08-11T04:04:30.976Z,1.70
2018-08-11T04:06:59.474Z,1.90
2018-08-11T04:09:27.770Z,1.80
2018-08-11T04:11:56.022Z,1.70
2018-08-11T04:14:24.295Z,1.90
2018-08-11T04:16:52.574Z,1.80
2018-08-11T04:19:20.838Z,1.80
2018-08-11T04:21:49.107Z,1.93
2018-08-11T04:24:17.363Z,1.90
2018-08-11T04:26:45.630Z,1.90
2018-08-11T04:29:13.907Z,1.97
2018-08-11T04:31:42.193Z,1.97
2018-08-11T04:34:10.719Z,1.93
2018-08-11T04:36:38.965Z,2.20
2018-08-11T04:39:08.552Z,2.10
2018-08-11T04:41:37.331Z,1.90
2018-08-11T04:44:05.646Z,1.93
2018-08-11T04:46:33.907Z,2.00
2018-08-11T04:49:02.219Z,2.10
2018-08-11T04:51:30.497Z,2.20
2018-08-11T04:53:58.820Z,1.80
2018-08-11T04:56:27.150Z,1.87
2018-08-11T04:58:55.426Z,2.13
2018-08-11T05:01:23.702Z,2.10
2018-08-11T05:03:52.388Z,2.00
2018-08-11T05:06:20.671Z,2.00
2018-08-11T05:08:48.956Z,2.30
2018-08-11T05:11:17.242Z,2.30
2018-08-11T05:13:45.521Z,2.50
2018-08-11T05:16:13.792Z,2.20
2018-08-11T05:18:42.065Z,2.27
2018-08-11T05:21:10.321Z,2.60
2018-08-11T05:23:38.582Z,2.37
2018-08-11T05:26:06.870Z,2.43
2018-08-11T05:28:35.123Z,2.00
2018-08-11T05:31:03.709Z,2.40
2018-08-11T05:33:32.055Z,2.30
2018-08-11T05:36:00.328Z,2.73
2018-08-11T05:38:28.686Z,2.60
2018-08-11T05:40:56.954Z,2.40
2018-08-11T05:43:25.226Z,2.80
2018-08-11T05:45:53.689Z,2.57
2018-08-11T05:48:21.942Z,2.40
2018-08-11T05:50:50.200Z,2.80
2018-08-11T05:53:18.474Z,2.70
2018-08-11T05:55:46.761Z,2.30
2018-08-11T05:58:15.035Z,2.47
2018-08-11T06:00:48.630Z,2.73
2018-08-11T06:03:16.891Z,2.40
2018-08-11T06:05:45.152Z,2.60
2018-08-11T06:08:13.424Z,2.50
2018-08-11T06:10:41.694Z,2.70
2018-08-11T06:13:10.047Z,2.60
2018-08-11T06:15:38.314Z,2.90
2018-08-11T06:18:06.859Z,3.20
2018-08-11T06:20:35.153Z,2.47
2018-08-11T06:23:03.413Z,2.40
2018-08-11T06:25:31.846Z,2.07
2018-08-11T06:28:00.250Z,2.37
2018-08-11T06:30:28.511Z,2.73
2018-08-11T06:32:56.787Z,2.33
2018-08-11T06:35:25.051Z,2.87
2018-08-11T06:37:53.381Z,2.60
2018-08-11T06:40:21.630Z,2.60
2018-08-11T06:42:49.970Z,1.80
2018-08-11T06:45:19.234Z,1.10
2018-08-11T06:47:48.237Z,1.10
2018-08-11T06:50:16.537Z,1.20
2018-08-11T06:52:45.915Z,1.00
2018-08-11T06:55:14.243Z,0.90
2018-08-11T06:57:42.531Z,0.90
2018-08-11T07:00:10.993Z,0.90
2018-08-11T07:02:39.276Z,1.13
2018-08-11T07:05:07.790Z,1.03
2018-08-11T07:07:36.105Z,1.07
2018-08-11T07:10:04.646Z,1.10
2018-08-11T07:12:32.950Z,1.10
2018-08-11T07:15:01.220Z,1.10
2018-08-11T07:17:29.797Z,1.07
2018-08-11T07:19:58.068Z,1.00
2018-08-11T07:22:26.356Z,0.87
2018-08-11T07:24:54.616Z,2.40
2018-08-11T07:27:23.600Z,1.43
2018-08-11T07:29:52.202Z,1.80
2018-08-11T07:32:20.477Z,1.10
2018-08-11T07:34:48.778Z,0.90
2018-08-11T07:37:17.051Z,0.90
2018-08-11T07:39:45.305Z,0.90
2018-08-11T07:42:14.430Z,0.90
2018-08-11T07:44:42.941Z,1.10
2018-08-11T07:47:11.358Z,0.90
2018-08-11T07:49:39.640Z,0.93
2018-08-11T07:52:08.238Z,1.20
2018-08-11T07:54:36.486Z,0.98
2018-08-11T07:57:05.187Z,0.85
2018-08-11T07:59:33.690Z,1.72
2018-08-11T08:02:01.998Z,1.17
2018-08-11T08:04:30.450Z,1.05
2018-08-11T08:06:59.012Z,1.12
2018-08-11T08:09:27.402Z,1.10
2018-08-11T08:11:55.671Z,0.98
2018-08-11T08:14:24.029Z,1.32
2018-08-11T08:16:52.360Z,1.02
2018-08-11T08:19:20.658Z,1.10
2018-08-11T08:21:48.941Z,1.00
2018-08-11T08:24:17.317Z,1.00
2018-08-11T08:26:46.530Z,0.90
2018-08-11T08:29:15.674Z,0.95
2018-08-11T08:31:44.812Z,1.00
2018-08-11T08:34:13.983Z,1.45
2018-08-11T08:36:43.064Z,1.20
2018-08-11T08:39:13.046Z,1.30
2018-08-11T08:41:42.131Z,1.32
2018-08-11T08:44:11.666Z,0.93
2018-08-11T08:46:40.659Z,1.25
2018-08-11T08:49:09.764Z,0.90
2018-08-11T08:51:38.693Z,1.22
2018-08-11T08:54:07.907Z,1.25
2018-08-11T08:56:36.928Z,1.30
2018-08-11T08:59:06.284Z,0.98
2018-08-11T09:01:36.525Z,1.47
2018-08-11T09:04:05.157Z,1.12
2018-08-11T09:06:33.510Z,1.10
2018-08-11T09:09:02.665Z,1.07
2018-08-11T09:11:31.696Z,1.00
2018-08-11T09:14:00.805Z,1.00
2018-08-11T09:16:29.704Z,1.10
2018-08-11T09:18:58.696Z,1.10
2018-08-11T09:21:27.679Z,1.35
2018-08-11T09:23:56.547Z,1.30
2018-08-11T09:26:25.332Z,1.25
2018-08-11T09:28:54.347Z,0.93
2018-08-11T09:31:23.526Z,1.17
2018-08-11T09:33:52.435Z,1.27
2018-08-11T09:36:21.513Z,0.98
2018-08-11T09:38:50.463Z,1.17
2018-08-11T09:41:19.307Z,1.55
2018-08-11T09:43:48.364Z,0.90
2018-08-11T09:46:17.333Z,1.27
2018-08-11T09:48:46.215Z,1.00
2018-08-11T09:51:15.069Z,1.47
2018-08-11T09:53:43.954Z,1.30
2018-08-11T09:56:12.983Z,1.20
2018-08-11T09:58:42.196Z,1.40
2018-08-11T10:01:16.345Z,1.25
2018-08-11T10:03:45.396Z,1.40
2018-08-11T10:06:14.316Z,1.50
2018-08-11T10:08:43.388Z,1.10
2018-08-11T10:11:12.451Z,1.32
2018-08-11T10:13:41.174Z,1.50
2018-08-11T10:16:10.150Z,1.30
2018-08-11T10:18:39.315Z,1.12
2018-08-11T10:21:08.503Z,1.25
2018-08-11T10:23:37.506Z,1.02
2018-08-11T10:26:06.866Z,1.20
2018-08-11T10:28:35.854Z,1.50
2018-08-11T10:31:05.205Z,1.40
2018-08-11T10:33:34.333Z,1.47
2018-08-11T10:36:03.499Z,1.10
2018-08-11T10:38:32.357Z,1.00
2018-08-11T10:41:01.226Z,1.60
2018-08-11T10:43:30.334Z,1.22
2018-08-11T10:45:59.442Z,1.45
2018-08-11T10:48:28.473Z,1.20
2018-08-11T10:50:57.219Z,1.20
2018-08-11T10:53:26.091Z,1.10
2018-08-11T10:55:55.165Z,1.30
2018-08-11T10:58:24.040Z,1.10
2018-08-11T11:00:53.196Z,1.30
2018-08-11T11:03:23.503Z,0.82
2018-08-11T11:05:52.515Z,1.10
2018-08-11T11:08:21.474Z,0.88
2018-08-11T11:10:50.425Z,0.95
2018-08-11T11:13:19.653Z,0.90
2018-08-11T11:15:48.966Z,1.20
2018-08-11T11:18:18.094Z,0.80
2018-08-11T11:20:47.142Z,0.85
2018-08-11T11:23:15.562Z,1.07
2018-08-11T11:25:43.844Z,1.05
2018-08-11T11:28:12.171Z,0.88
2018-08-11T11:30:40.810Z,0.72
2018-08-11T11:33:09.788Z,0.97
2018-08-11T11:35:38.941Z,1.00
2018-08-11T11:38:07.883Z,0.97
2018-08-11T11:40:37.003Z,1.00
2018-08-11T11:43:06.183Z,0.73
2018-08-11T11:45:35.360Z,0.80
2018-08-11T11:48:04.372Z,1.07
2018-08-11T11:50:33.271Z,0.80
2018-08-11T11:53:02.573Z,0.80
2018-08-11T11:55:31.551Z,0.82
2018-08-11T11:58:02.077Z,0.70
2018-08-11T12:00:31.346Z,0.90
2018-08-11T12:03:00.213Z,0.70
2018-08-11T12:05:29.256Z,0.60
2018-08-11T12:07:58.013Z,0.80
2018-08-11T12:10:27.232Z,0.93
2018-08-11T12:12:56.358Z,0.80
2018-08-11T12:15:25.361Z,1.10
2018-08-11T12:17:54.279Z,0.78
2018-08-11T12:20:23.576Z,0.98
2018-08-11T12:22:52.639Z,1.00
2018-08-11T12:25:22.496Z,1.12
2018-08-11T12:27:51.743Z,0.80
2018-08-11T12:30:20.857Z,1.00
2018-08-11T12:32:50.162Z,0.80
2018-08-11T12:35:19.099Z,0.68
2018-08-11T12:37:48.090Z,0.88
2018-08-11T12:40:17.271Z,1.10
2018-08-11T12:42:46.206Z,0.90
2018-08-11T12:45:15.198Z,0.80
2018-08-11T12:47:44.276Z,0.90
2018-08-11T12:50:13.210Z,1.10
2018-08-11T12:52:42.087Z,1.00
2018-08-11T12:55:11.123Z,1.00
2018-08-11T12:57:40.004Z,0.90
2018-08-11T13:00:11.039Z,0.77
2018-08-11T13:02:40.081Z,1.03
2018-08-11T13:05:09.167Z,0.90
2018-08-11T13:07:37.966Z,0.93
2018-08-11T13:10:07.421Z,0.90
2018-08-11T13:12:36.255Z,0.87
2018-08-11T13:15:05.937Z,0.80
2018-08-11T13:17:34.648Z,1.00
2018-08-11T13:20:03.576Z,1.10
2018-08-11T13:22:33.899Z,0.80
2018-08-11T13:25:02.900Z,1.10
2018-08-11T13:27:32.357Z,0.90
2018-08-11T13:30:01.363Z,1.00
2018-08-11T13:32:30.249Z,0.93
2018-08-11T13:34:59.064Z,0.83
2018-08-11T13:37:27.999Z,0.80
2018-08-11T13:39:57.773Z,0.90
2018-08-11T13:42:26.996Z,0.60
2018-08-11T13:44:56.038Z,0.80
2018-08-11T13:47:24.973Z,0.83
2018-08-11T13:49:53.364Z,0.83
2018-08-11T13:52:21.695Z,0.80
2018-08-11T13:54:50.874Z,0.80
2018-08-11T13:57:19.837Z,0.87
2018-08-11T13:59:50.955Z,0.80
2018-08-11T14:02:19.402Z,0.80
2018-08-11T14:04:48.538Z,0.82
2018-08-11T14:07:17.473Z,0.70
2018-08-11T14:09:46.690Z,0.90
2018-08-11T14:12:15.900Z,0.73
2018-08-11T14:14:44.814Z,0.90
2018-08-11T14:17:13.715Z,0.80
2018-08-11T14:19:42.733Z,0.90
2018-08-11T14:22:11.775Z,0.57
2018-08-11T14:24:42.279Z,0.80
2018-08-11T14:27:11.406Z,0.90
2018-08-11T14:32:51.021Z,0.90
2018-08-11T14:35:20.052Z,0.80
2018-08-11T14:37:48.839Z,0.87
2018-08-11T14:40:17.843Z,0.70
2018-08-11T14:42:48.761Z,0.73
2018-08-11T14:45:17.788Z,0.90
2018-08-11T14:47:47.142Z,0.80
2018-08-11T14:50:16.082Z,1.00
2018-08-11T14:52:45.282Z,1.03
2018-08-11T14:55:14.276Z,1.00
2018-08-11T14:57:44.983Z,0.70
2018-08-11T15:00:15.621Z,0.90
2018-08-11T15:02:44.612Z,0.90
2018-08-11T15:05:13.717Z,0.83
2018-08-11T15:07:42.659Z,0.87
2018-08-11T15:10:11.819Z,0.90
2018-08-11T15:12:40.054Z,0.98
2018-08-11T15:15:10.268Z,1.00
2018-08-11T15:17:41.265Z,0.70
2018-08-11T15:20:10.513Z,0.83
2018-08-11T15:22:44.232Z,0.90
2018-08-11T15:25:13.050Z,0.70
2018-08-11T15:27:42.029Z,0.70
2018-08-11T15:30:13.910Z,0.70
2018-08-11T15:32:42.798Z,0.70
2018-08-11T15:35:11.784Z,0.80
2018-08-11T15:37:40.987Z,0.90
2018-08-11T15:40:09.922Z,1.10
2018-08-11T15:42:38.744Z,0.70
2018-08-11T15:45:08.164Z,0.80
2018-08-11T15:47:37.547Z,0.63
2018-08-11T15:50:06.107Z,1.00
2018-08-11T15:52:35.417Z,0.70
2018-08-11T15:55:04.345Z,0.90
2018-08-11T15:57:33.437Z,0.70
2018-08-11T16:00:01.779Z,0.73
2018-08-11T16:02:30.812Z,0.77
2018-08-11T16:05:00.100Z,0.80
2018-08-11T16:07:29.071Z,1.00
2018-08-11T16:09:58.436Z,0.80
2018-08-11T16:12:27.224Z,1.30
2018-08-11T16:14:56.429Z,1.23
2018-08-11T16:17:25.222Z,0.80
2018-08-11T16:19:54.080Z,0.77
2018-08-11T16:22:23.197Z,0.90
2018-08-11T16:24:52.132Z,0.80
2018-08-11T16:27:21.685Z,1.63
2018-08-11T16:29:52.073Z,1.10
2018-08-11T16:32:22.473Z,1.73
2018-08-11T16:34:51.362Z,1.20
2018-08-11T16:37:21.198Z,1.23
2018-08-11T16:39:50.087Z,1.20
2018-08-11T16:42:19.029Z,1.20
2018-08-11T16:44:47.988Z,1.00
2018-08-11T16:47:16.925Z,0.90
2018-08-11T16:49:45.764Z,1.57
2018-08-11T16:55:05.499Z,3.17
2018-08-11T16:57:34.346Z,0.90
2018-08-11T17:00:03.435Z,0.70
2018-08-11T17:02:32.775Z,0.90
2018-08-11T17:05:02.115Z,1.03
2018-08-11T17:07:31.347Z,1.00
2018-08-11T17:10:00.154Z,0.97
2018-08-11T17:12:29.062Z,0.97
2018-08-11T17:14:57.962Z,0.80
2018-08-11T17:17:27.300Z,1.10
2018-08-11T17:19:56.381Z,0.87
2018-08-11T17:22:25.324Z,0.97
2018-08-11T17:24:54.259Z,0.80
2018-08-11T17:27:23.138Z,1.10
2018-08-11T17:29:51.924Z,1.10
2018-08-11T17:32:20.811Z,1.00
2018-08-11T17:34:50.242Z,0.80
2018-08-11T17:37:19.098Z,1.00
2018-08-11T17:39:47.921Z,1.00
2018-08-11T17:42:16.620Z,0.80
2018-08-11T17:44:45.335Z,1.00
2018-08-11T17:47:15.303Z,0.87
2018-08-11T17:49:44.284Z,1.23
2018-08-11T17:52:13.143Z,0.67
2018-08-11T17:54:41.966Z,1.07
2018-08-11T17:57:10.278Z,1.10
2018-08-11T17:59:39.482Z,0.80
2018-08-11T18:02:08.948Z,0.70
2018-08-11T18:04:37.459Z,0.80
2018-08-11T18:07:06.651Z,0.83
2018-08-11T18:09:35.445Z,1.20
2018-08-11T18:12:04.512Z,0.73
2018-08-11T18:14:33.391Z,1.00
2018-08-11T18:17:02.305Z,1.00
2018-08-11T18:19:33.768Z,0.93
2018-08-11T18:22:02.782Z,1.00
2018-08-11T18:24:32.523Z,0.97
2018-08-11T18:27:01.679Z,0.90
2018-08-11T18:29:30.630Z,0.80
2018-08-11T18:31:59.484Z,0.70
2018-08-11T18:34:28.407Z,1.00
2018-08-11T18:36:57.411Z,0.70
2018-08-11T18:39:27.867Z,1.00
2018-08-11T18:41:56.689Z,0.90
2018-08-11T18:44:25.663Z,1.03
2018-08-11T18:46:54.562Z,1.03
2018-08-11T18:49:23.858Z,1.07
2018-08-11T18:51:52.887Z,0.80
2018-08-11T18:54:22.411Z,0.93
2018-08-11T18:56:51.357Z,1.20
2018-08-11T18:59:20.298Z,0.80
2018-08-11T19:01:49.370Z,1.07
2018-08-11T19:04:18.210Z,1.10
2018-08-11T19:06:47.105Z,0.93
2018-08-11T19:09:16.011Z,0.93
2018-08-11T19:11:44.777Z,1.13
2018-08-11T19:14:13.719Z,1.07
2018-08-11T19:16:42.642Z,1.40
2018-08-11T19:19:11.696Z,0.93
2018-08-11T19:21:39.950Z,1.10
2018-08-11T19:24:08.243Z,1.10
2018-08-11T19:26:36.503Z,0.93
2018-08-11T19:29:04.861Z,1.10
2018-08-11T19:31:33.883Z,1.20
2018-08-11T19:34:02.712Z,1.27
2018-08-11T19:36:31.684Z,1.30
2018-08-11T19:39:00.376Z,1.17
2018-08-11T19:41:29.306Z,1.00
2018-08-11T19:43:58.309Z,1.10
2018-08-11T19:46:27.210Z,1.20
2018-08-11T19:48:56.286Z,1.30
2018-08-11T19:51:25.293Z,1.30
2018-08-11T19:53:54.045Z,1.30
2018-08-11T19:56:23.018Z,1.50
2018-08-11T19:58:52.079Z,1.33
2018-08-11T20:01:21.026Z,1.33
2018-08-11T20:03:49.956Z,1.30
2018-08-11T20:06:18.899Z,1.43
2018-08-11T20:08:47.665Z,1.43
2018-08-11T20:11:16.603Z,1.67
2018-08-11T20:13:45.551Z,2.07
2018-08-11T20:16:14.391Z,2.00
2018-08-11T20:18:42.705Z,1.90
2018-08-11T20:21:10.961Z,1.90
2018-08-11T20:23:39.235Z,2.00
2018-08-11T20:26:07.498Z,1.47
2018-08-11T20:28:35.763Z,1.53
2018-08-11T20:31:04.023Z,1.20
2018-08-11T20:33:32.411Z,1.60
2018-08-11T20:36:00.667Z,1.30
2018-08-11T20:38:28.945Z,1.47
2018-08-11T20:40:57.282Z,1.40
2018-08-11T20:43:25.538Z,1.90
2018-08-11T20:45:53.837Z,1.33
2018-08-11T20:48:22.114Z,1.60
2018-08-11T20:50:50.404Z,1.60
2018-08-11T20:53:18.699Z,1.13
2018-08-11T20:55:47.039Z,1.40
2018-08-11T20:58:15.339Z,1.80
2018-08-11T21:00:43.726Z,1.40
2018-08-11T21:03:12.740Z,1.80
2018-08-11T21:05:41.015Z,1.47
2018-08-11T21:08:09.300Z,1.40
2018-08-11T21:10:37.601Z,1.60
2018-08-11T21:13:06.113Z,1.50
2018-08-11T21:15:34.478Z,1.70
2018-08-11T21:18:02.764Z,1.50
2018-08-11T21:20:31.059Z,1.53
2018-08-11T21:22:59.358Z,1.13
2018-08-11T21:25:27.649Z,1.50
2018-08-11T21:27:56.052Z,1.30
2018-08-11T21:33:15.153Z,1.17
2018-08-11T21:35:43.417Z,1.10
2018-08-11T21:38:11.658Z,1.20
2018-08-11T21:40:39.933Z,1.40
2018-08-11T21:48:07.101Z,1.40
2018-08-11T21:50:35.405Z,1.63
2018-08-11T21:53:03.709Z,1.40
2018-08-11T21:55:31.973Z,1.50
2018-08-11T21:58:00.250Z,1.30
2018-08-11T22:00:35.505Z,1.30
2018-08-11T22:03:04.028Z,1.57
2018-08-11T22:05:32.429Z,1.50
2018-08-11T22:08:01.621Z,1.30
2018-08-11T22:10:30.319Z,1.17
2018-08-11T22:12:58.762Z,1.20
2018-08-11T22:15:27.101Z,1.53
2018-08-11T22:17:55.374Z,1.30
2018-08-11T22:20:23.687Z,1.30
2018-08-11T22:22:52.054Z,1.47
2018-08-11T22:25:20.379Z,1.60
2018-08-11T22:27:48.646Z,1.47
2018-08-11T22:30:17.039Z,1.70
2018-08-11T22:32:45.309Z,1.50
2018-08-11T22:35:13.592Z,1.47
2018-08-11T22:37:41.854Z,1.47
2018-08-11T22:40:10.117Z,1.70
2018-08-11T22:42:38.974Z,1.47
2018-08-11T22:45:08.802Z,1.37
2018-08-11T22:47:37.535Z,1.20
2018-08-11T22:50:07.717Z,1.33
2018-08-11T22:52:36.331Z,2.10
2018-08-11T22:55:05.054Z,2.40
2018-08-11T22:57:33.421Z,2.27
2018-08-11T23:00:01.714Z,2.10
2018-08-11T23:02:30.022Z,1.80
2018-08-11T23:04:58.313Z,1.97
2018-08-11T23:07:26.601Z,1.63
2018-08-11T23:09:54.874Z,1.50
2018-08-11T23:12:23.134Z,1.50
2018-08-11T23:14:51.385Z,1.50
2018-08-11T23:17:19.679Z,1.50
2018-08-11T23:19:48.006Z,1.60
2018-08-11T23:22:16.281Z,1.47
2018-08-11T23:24:44.566Z,1.53
2018-08-11T23:27:12.886Z,1.90
2018-08-11T23:29:41.161Z,1.30
2018-08-11T23:32:09.464Z,1.57
2018-08-11T23:34:37.732Z,1.47
2018-08-11T23:37:06.007Z,1.60
2018-08-11T23:39:34.370Z,1.77
2018-08-11T23:42:02.638Z,1.43
2018-08-11T23:44:30.913Z,1.40
2018-08-11T23:46:59.172Z,1.57
2018-08-11T23:49:27.467Z,1.70
2018-08-11T23:51:55.741Z,1.67
2018-08-11T23:54:24.045Z,1.43
2018-08-11T23:56:52.336Z,1.50
2018-08-11T23:59:20.623Z,1.67
